createdAt,value
2019-02-17T00:01:31.202Z,-0.92
2019-02-17T00:03:31.074Z,-1.03
2019-02-17T00:05:31.284Z,-1.14
2019-02-17T00:07:31.149Z,-1.10
2019-02-17T00:09:31.571Z,-0.94
2019-02-17T00:11:31.586Z,-0.92
2019-02-17T00:13:31.196Z,-0.84
2019-02-17T00:15:31.200Z,-0.95
2019-02-17T00:17:31.426Z,-0.81
2019-02-17T00:19:31.013Z,-0.94
2019-02-17T00:21:31.139Z,-0.93
2019-02-17T00:23:31.247Z,-1.03
2019-02-17T00:25:31.056Z,-1.05
2019-02-17T00:27:30.991Z,-1.04
2019-02-17T00:29:31.279Z,-1.03
2019-02-17T00:31:31.204Z,-0.97
2019-02-17T00:33:31.037Z,-0.99
2019-02-17T00:35:31.313Z,-1.10
2019-02-17T00:37:31.328Z,-1.07
2019-02-17T00:39:31.537Z,-1.06
2019-02-17T00:41:31.353Z,-1.13
2019-02-17T00:43:31.569Z,-1.07
2019-02-17T00:45:31.382Z,-0.98
2019-02-17T00:47:31.383Z,-1.08
2019-02-17T00:49:31.400Z,-1.07
2019-02-17T00:51:31.212Z,-1.25
2019-02-17T00:53:31.116Z,-1.27
2019-02-17T00:55:31.027Z,-1.23
2019-02-17T00:57:31.368Z,-1.20
2019-02-17T00:59:31.256Z,-1.13
2019-02-17T01:01:31.058Z,-1.34
2019-02-17T01:03:31.199Z,-1.21
2019-02-17T01:05:31.417Z,-1.20
2019-02-17T01:07:31.230Z,-1.29
2019-02-17T01:09:31.310Z,-1.17
2019-02-17T01:11:32.356Z,-1.27
2019-02-17T01:13:31.254Z,-1.09
2019-02-17T01:15:31.438Z,-1.18
2019-02-17T01:17:31.133Z,-1.15
2019-02-17T01:19:31.336Z,-1.02
2019-02-17T01:21:31.326Z,-1.14
2019-02-17T01:23:31.332Z,-1.08
2019-02-17T01:25:31.612Z,-1.08
2019-02-17T01:27:31.217Z,-1.12
2019-02-17T01:29:31.217Z,-1.29
2019-02-17T01:31:31.164Z,-1.31
2019-02-17T01:33:31.246Z,-1.21
2019-02-17T01:35:31.253Z,-1.37
2019-02-17T01:37:31.274Z,-1.36
2019-02-17T01:39:31.277Z,-1.25
2019-02-17T01:41:31.048Z,-1.33
2019-02-17T01:43:31.301Z,-1.47
2019-02-17T01:45:31.475Z,-1.48
2019-02-17T01:47:31.735Z,-1.45
2019-02-17T01:49:31.256Z,-1.45
2019-02-17T01:51:31.272Z,-1.45
2019-02-17T01:53:31.568Z,-1.27
2019-02-17T01:55:31.168Z,-1.39
2019-02-17T01:57:31.278Z,-1.41
2019-02-17T01:59:31.314Z,-1.45
2019-02-17T02:01:31.611Z,-1.39
2019-02-17T02:03:31.217Z,-1.37
2019-02-17T02:05:31.436Z,-1.55
2019-02-17T02:07:32.203Z,-1.47
2019-02-17T02:09:31.013Z,-1.46
2019-02-17T02:11:31.264Z,-1.53
2019-02-17T02:13:31.438Z,-1.60
2019-02-17T02:15:31.188Z,-1.45
2019-02-17T02:17:31.250Z,-1.59
2019-02-17T02:19:31.357Z,-1.44
2019-02-17T02:21:31.735Z,-1.33
2019-02-17T02:23:31.257Z,-1.19
2019-02-17T02:25:31.137Z,-1.12
2019-02-17T02:27:31.262Z,-1.15
2019-02-17T02:29:40.714Z,-1.13
2019-02-17T02:31:31.380Z,-1.36
2019-02-17T02:33:31.389Z,-1.32
2019-02-17T02:35:31.600Z,-1.39
2019-02-17T02:37:31.204Z,-1.45
2019-02-17T02:39:31.441Z,-1.59
2019-02-17T02:41:35.024Z,-1.60
2019-02-17T02:43:30.952Z,-1.73
2019-02-17T02:45:31.042Z,-1.63
2019-02-17T02:47:31.195Z,-1.74
2019-02-17T02:49:31.276Z,-1.66
2019-02-17T02:51:31.055Z,-1.77
2019-02-17T02:53:31.207Z,-1.80
2019-02-17T02:55:31.715Z,-1.73
2019-02-17T02:57:31.529Z,-1.87
2019-02-17T02:59:31.737Z,-1.75
2019-02-17T03:01:31.340Z,-1.76
2019-02-17T03:03:31.357Z,-1.77
2019-02-17T03:05:31.365Z,-1.75
2019-02-17T03:07:31.086Z,-1.93
2019-02-17T03:09:31.131Z,-1.96
2019-02-17T03:11:31.398Z,-1.96
2019-02-17T03:13:31.531Z,-2.01
2019-02-17T03:15:31.177Z,-2.02
2019-02-17T03:17:31.232Z,-1.85
2019-02-17T03:19:31.185Z,-2.06
2019-02-17T03:21:31.048Z,-1.96
2019-02-17T03:23:31.273Z,-1.91
2019-02-17T03:25:31.375Z,-1.82
2019-02-17T03:27:31.078Z,-1.78
2019-02-17T03:29:31.247Z,-1.62
2019-02-17T03:31:31.064Z,-1.57
2019-02-17T03:33:31.331Z,-1.59
2019-02-17T03:35:31.951Z,-1.56
2019-02-17T03:37:31.547Z,-1.64
2019-02-17T03:39:31.360Z,-1.69
2019-02-17T03:41:31.577Z,-1.62
2019-02-17T03:43:31.583Z,-1.90
2019-02-17T03:45:31.281Z,-1.86
2019-02-17T03:47:31.602Z,-1.84
2019-02-17T03:49:31.218Z,-2.02
2019-02-17T03:51:31.427Z,-1.99
2019-02-17T03:53:31.191Z,-2.09
2019-02-17T03:55:31.459Z,-2.05
2019-02-17T03:57:31.199Z,-2.10
2019-02-17T03:59:31.396Z,-2.24
2019-02-17T04:01:31.434Z,-2.08
2019-02-17T04:03:31.095Z,-2.20
2019-02-17T04:05:31.524Z,-2.13
2019-02-17T04:07:31.222Z,-2.20
2019-02-17T04:09:31.234Z,-2.03
2019-02-17T04:11:31.345Z,-2.40
2019-02-17T04:13:31.346Z,-2.26
2019-02-17T04:15:31.494Z,-2.39
2019-02-17T04:17:31.535Z,-2.29
2019-02-17T04:19:31.186Z,-2.04
2019-02-17T04:21:33.322Z,-2.00
2019-02-17T04:23:31.788Z,-2.11
2019-02-17T04:25:31.209Z,-1.94
2019-02-17T04:27:31.434Z,-1.92
2019-02-17T04:29:31.385Z,-1.91
2019-02-17T04:31:31.253Z,-1.70
2019-02-17T04:33:31.473Z,-1.93
2019-02-17T04:35:31.421Z,-1.88
2019-02-17T04:37:31.405Z,-2.02
2019-02-17T04:39:31.296Z,-1.99
2019-02-17T04:41:31.307Z,-2.11
2019-02-17T04:43:31.109Z,-2.20
2019-02-17T04:45:31.117Z,-2.29
2019-02-17T04:47:31.750Z,-2.41
2019-02-17T04:49:31.554Z,-2.10
2019-02-17T04:51:31.365Z,-2.11
2019-02-17T04:53:31.379Z,-2.25
2019-02-17T04:55:31.396Z,-2.36
2019-02-17T04:57:31.398Z,-2.38
2019-02-17T04:59:31.417Z,-2.47
2019-02-17T05:01:31.218Z,-2.50
2019-02-17T05:03:31.193Z,-2.49
2019-02-17T05:05:31.434Z,-2.55
2019-02-17T05:07:31.455Z,-2.66
2019-02-17T05:09:31.404Z,-2.65
2019-02-17T05:11:31.887Z,-2.60
2019-02-17T05:13:31.693Z,-2.63
2019-02-17T05:15:31.204Z,-2.43
2019-02-17T05:17:31.509Z,-2.61
2019-02-17T05:19:31.109Z,-2.47
2019-02-17T05:21:31.333Z,-2.38
2019-02-17T05:23:31.531Z,-2.36
2019-02-17T05:25:31.152Z,-2.56
2019-02-17T05:27:31.370Z,-2.61
2019-02-17T05:29:31.593Z,-2.75
2019-02-17T05:31:31.334Z,-2.59
2019-02-17T05:33:31.131Z,-2.54
2019-02-17T05:35:31.407Z,-2.71
2019-02-17T05:37:31.197Z,-2.66
2019-02-17T05:39:31.228Z,-2.71
2019-02-17T05:41:31.449Z,-2.72
2019-02-17T05:43:31.395Z,-2.74
2019-02-17T05:45:31.473Z,-2.64
2019-02-17T05:47:31.408Z,-2.62
2019-02-17T05:49:31.496Z,-2.66
2019-02-17T05:51:31.307Z,-2.75
2019-02-17T05:53:31.497Z,-2.74
2019-02-17T05:55:31.479Z,-2.68
2019-02-17T05:57:31.137Z,-2.55
2019-02-17T05:59:31.318Z,-2.66
2019-02-17T06:01:31.568Z,-2.31
2019-02-17T06:03:31.368Z,-2.42
2019-02-17T06:05:31.361Z,-2.55
2019-02-17T06:07:31.601Z,-2.51
2019-02-17T06:09:31.405Z,-2.56
2019-02-17T06:11:32.027Z,-2.48
2019-02-17T06:13:31.168Z,-2.48
2019-02-17T06:15:31.236Z,-2.41
2019-02-17T06:17:31.461Z,-2.54
2019-02-17T06:19:31.254Z,-2.55
2019-02-17T06:21:31.681Z,-2.46
2019-02-17T06:23:31.467Z,-2.77
2019-02-17T06:25:31.697Z,-2.80
2019-02-17T06:27:31.528Z,-2.70
2019-02-17T06:29:31.526Z,-2.52
2019-02-17T06:31:31.681Z,-2.66
2019-02-17T06:33:31.130Z,-2.66
2019-02-17T06:35:31.556Z,-2.65
2019-02-17T06:37:31.369Z,-2.59
2019-02-17T06:39:31.164Z,-2.75
2019-02-17T06:41:31.383Z,-2.72
2019-02-17T06:43:31.392Z,-2.57
2019-02-17T06:45:31.409Z,-2.49
2019-02-17T06:47:31.223Z,-2.56
2019-02-17T06:49:31.398Z,-2.54
2019-02-17T06:51:31.240Z,-2.49
2019-02-17T06:53:31.438Z,-2.34
2019-02-17T06:55:31.619Z,-2.33
2019-02-17T06:57:31.452Z,-2.30
2019-02-17T06:59:31.489Z,-2.22
2019-02-17T07:01:31.501Z,-2.27
2019-02-17T07:03:31.734Z,-2.01
2019-02-17T07:05:31.315Z,-1.79
2019-02-17T07:07:31.350Z,-1.40
2019-02-17T07:09:31.354Z,-1.08
2019-02-17T07:11:31.500Z,-0.77
2019-02-17T07:13:31.168Z,-0.54
2019-02-17T07:15:31.181Z,-0.47
2019-02-17T07:17:31.385Z,-0.40
2019-02-17T07:19:31.357Z,-0.17
2019-02-17T07:21:31.321Z,-0.07
2019-02-17T07:23:31.431Z,0.14
2019-02-17T07:25:31.220Z,0.21
2019-02-17T07:27:31.154Z,0.36
2019-02-17T07:29:31.404Z,0.50
2019-02-17T07:31:34.983Z,0.87
2019-02-17T07:33:31.413Z,1.37
2019-02-17T07:35:31.424Z,1.29
2019-02-17T07:37:33.814Z,1.45
2019-02-17T07:39:31.269Z,1.53
2019-02-17T07:41:31.331Z,1.55
2019-02-17T07:43:31.274Z,1.63
2019-02-17T07:45:31.545Z,1.85
2019-02-17T07:47:31.787Z,2.08
2019-02-17T07:49:31.372Z,2.21
2019-02-17T07:51:31.588Z,2.46
2019-02-17T07:53:31.183Z,2.46
2019-02-17T07:55:31.193Z,2.57
2019-02-17T07:57:31.326Z,2.46
2019-02-17T07:59:31.635Z,2.71
2019-02-17T08:01:31.380Z,2.82
2019-02-17T08:03:31.200Z,3.09
2019-02-17T08:05:31.259Z,3.33
2019-02-17T08:07:31.477Z,3.61
2019-02-17T08:09:31.489Z,4.02
2019-02-17T08:11:31.908Z,4.16
2019-02-17T08:13:31.512Z,4.42
2019-02-17T08:15:31.514Z,4.50
2019-02-17T08:17:31.936Z,4.81
2019-02-17T08:19:31.545Z,4.94
2019-02-17T08:21:31.347Z,5.16
2019-02-17T08:23:31.725Z,5.38
2019-02-17T08:25:31.372Z,5.58
2019-02-17T08:27:31.591Z,5.84
2019-02-17T08:29:31.607Z,6.03
2019-02-17T08:31:31.578Z,6.09
2019-02-17T08:33:31.621Z,5.82
2019-02-17T08:35:31.606Z,5.72
2019-02-17T08:37:31.439Z,5.62
2019-02-17T08:39:31.458Z,5.64
2019-02-17T08:41:31.291Z,5.60
2019-02-17T08:43:31.623Z,5.71
2019-02-17T08:45:31.220Z,5.79
2019-02-17T08:47:31.779Z,5.79
2019-02-17T08:49:31.507Z,5.61
2019-02-17T08:51:31.320Z,5.60
2019-02-17T08:53:31.519Z,5.75
2019-02-17T08:55:31.539Z,5.77
2019-02-17T08:57:31.483Z,6.02
2019-02-17T08:59:31.564Z,6.05
2019-02-17T09:01:31.788Z,6.24
2019-02-17T09:03:31.518Z,6.54
2019-02-17T09:05:31.802Z,6.75
2019-02-17T09:07:31.589Z,6.63
2019-02-17T09:09:31.806Z,6.60
2019-02-17T09:11:32.262Z,6.43
2019-02-17T09:13:31.648Z,6.60
2019-02-17T09:15:31.398Z,6.46
2019-02-17T09:17:31.673Z,6.28
2019-02-17T09:19:31.682Z,6.22
2019-02-17T09:21:31.284Z,6.18
2019-02-17T09:23:31.232Z,6.19
2019-02-17T09:25:31.249Z,6.21
2019-02-17T09:27:31.529Z,6.25
2019-02-17T09:29:31.298Z,6.43
2019-02-17T09:31:31.336Z,6.36
2019-02-17T09:33:31.354Z,6.34
2019-02-17T09:35:31.571Z,6.34
2019-02-17T09:37:31.374Z,6.25
2019-02-17T09:39:31.594Z,6.30
2019-02-17T09:41:31.604Z,6.40
2019-02-17T09:43:31.507Z,6.66
2019-02-17T09:45:31.634Z,6.76
2019-02-17T09:47:31.642Z,6.80
2019-02-17T09:49:31.646Z,6.91
2019-02-17T09:51:31.668Z,7.12
2019-02-17T09:53:31.670Z,6.97
2019-02-17T09:55:31.481Z,6.77
2019-02-17T09:57:31.516Z,6.68
2019-02-17T09:59:31.710Z,6.81
2019-02-17T10:01:31.511Z,7.06
2019-02-17T10:03:31.742Z,7.22
2019-02-17T10:05:31.682Z,7.23
2019-02-17T10:07:31.510Z,7.49
2019-02-17T10:09:31.357Z,7.76
2019-02-17T10:11:31.570Z,7.88
2019-02-17T10:13:31.524Z,7.85
2019-02-17T10:15:31.607Z,7.91
2019-02-17T10:17:31.619Z,8.00
2019-02-17T10:19:31.390Z,7.94
2019-02-17T10:21:31.579Z,7.85
2019-02-17T10:23:31.482Z,7.93
2019-02-17T10:25:31.657Z,8.10
2019-02-17T10:27:31.668Z,8.05
2019-02-17T10:29:31.429Z,7.79
2019-02-17T10:31:31.481Z,7.76
2019-02-17T10:33:31.489Z,7.92
2019-02-17T10:35:31.918Z,8.18
2019-02-17T10:37:31.454Z,8.22
2019-02-17T10:39:31.484Z,8.18
2019-02-17T10:41:31.535Z,8.20
2019-02-17T10:43:31.863Z,8.20
2019-02-17T10:45:31.769Z,7.98
2019-02-17T10:47:31.554Z,8.02
2019-02-17T10:49:31.557Z,7.87
2019-02-17T10:51:31.599Z,7.90
2019-02-17T10:53:32.020Z,7.89
2019-02-17T10:55:31.382Z,7.92
2019-02-17T10:57:31.846Z,8.14
2019-02-17T10:59:31.644Z,8.20
2019-02-17T11:01:31.961Z,8.35
2019-02-17T11:03:31.578Z,8.24
2019-02-17T11:05:31.889Z,8.43
2019-02-17T11:07:31.686Z,8.58
2019-02-17T11:09:31.707Z,8.79
2019-02-17T11:11:31.493Z,8.82
2019-02-17T11:13:31.726Z,8.76
2019-02-17T11:15:31.740Z,8.90
2019-02-17T11:17:32.072Z,9.18
2019-02-17T11:19:31.693Z,9.46
2019-02-17T11:21:31.567Z,9.50
2019-02-17T11:23:31.781Z,9.35
2019-02-17T11:25:31.763Z,9.35
2019-02-17T11:27:31.566Z,9.57
2019-02-17T11:29:31.631Z,9.70
2019-02-17T11:31:31.829Z,9.80
2019-02-17T11:33:31.567Z,9.92
2019-02-17T11:35:31.460Z,10.19
2019-02-17T11:37:31.585Z,10.50
2019-02-17T11:39:31.392Z,10.66
2019-02-17T11:41:32.032Z,10.69
2019-02-17T11:43:32.115Z,10.88
2019-02-17T11:45:31.908Z,11.01
2019-02-17T11:47:31.648Z,11.01
2019-02-17T11:49:31.485Z,10.97
2019-02-17T11:51:31.480Z,11.13
2019-02-17T11:53:31.956Z,11.40
2019-02-17T11:55:31.644Z,11.46
2019-02-17T11:57:31.957Z,11.38
2019-02-17T11:59:31.783Z,11.32
2019-02-17T12:01:31.804Z,11.17
2019-02-17T12:03:31.797Z,10.87
2019-02-17T12:05:31.822Z,10.70
2019-02-17T12:07:31.840Z,10.63
2019-02-17T12:09:31.645Z,10.54
2019-02-17T12:11:31.731Z,10.54
2019-02-17T12:13:31.866Z,10.51
2019-02-17T12:15:31.886Z,10.69
2019-02-17T12:17:31.890Z,10.73
2019-02-17T12:19:31.701Z,10.93
2019-02-17T12:21:31.431Z,10.96
2019-02-17T12:23:31.524Z,10.87
2019-02-17T12:25:31.941Z,10.94
2019-02-17T12:27:31.538Z,11.06
2019-02-17T12:29:31.695Z,11.23
2019-02-17T12:31:31.503Z,11.00
2019-02-17T12:33:31.581Z,10.97
2019-02-17T12:35:32.205Z,11.01
2019-02-17T12:37:32.128Z,11.07
2019-02-17T12:39:31.587Z,11.04
2019-02-17T12:41:31.567Z,11.12
2019-02-17T12:43:31.608Z,11.04
2019-02-17T12:45:31.649Z,11.17
2019-02-17T12:47:31.796Z,11.24
2019-02-17T12:49:31.794Z,11.44
2019-02-17T12:51:31.894Z,11.57
2019-02-17T12:53:32.098Z,11.49
2019-02-17T12:55:31.822Z,11.61
2019-02-17T12:57:31.933Z,11.62
2019-02-17T12:59:31.721Z,11.78
2019-02-17T13:01:31.471Z,11.67
2019-02-17T13:03:31.881Z,11.95
2019-02-17T13:05:31.966Z,12.18
2019-02-17T13:07:31.551Z,12.37
2019-02-17T13:09:31.958Z,12.55
2019-02-17T13:11:31.830Z,12.89
2019-02-17T13:13:31.814Z,12.95
2019-02-17T13:15:31.617Z,13.07
2019-02-17T13:17:31.836Z,12.97
2019-02-17T13:19:33.227Z,12.97
2019-02-17T13:21:31.649Z,12.85
2019-02-17T13:23:31.868Z,12.83
2019-02-17T13:25:31.880Z,12.87
2019-02-17T13:27:31.689Z,12.60
2019-02-17T13:29:31.903Z,12.63
2019-02-17T13:31:31.912Z,12.63
2019-02-17T13:33:38.794Z,12.79
2019-02-17T13:35:32.142Z,12.53
2019-02-17T13:37:31.950Z,12.69
2019-02-17T13:39:31.956Z,12.79
2019-02-17T13:41:31.974Z,12.83
2019-02-17T13:43:31.982Z,12.89
2019-02-17T13:45:32.042Z,12.79
2019-02-17T13:47:31.598Z,12.81
2019-02-17T13:49:31.811Z,12.59
2019-02-17T13:51:31.824Z,12.73
2019-02-17T13:53:31.843Z,12.74
2019-02-17T13:55:31.645Z,12.81
2019-02-17T13:57:31.658Z,12.88
2019-02-17T13:59:31.897Z,13.01
2019-02-17T14:01:31.680Z,13.15
2019-02-17T14:03:31.694Z,13.13
2019-02-17T14:05:31.909Z,13.26
2019-02-17T14:07:31.725Z,13.30
2019-02-17T14:09:32.062Z,13.31
2019-02-17T14:11:31.732Z,13.30
2019-02-17T14:13:31.758Z,13.41
2019-02-17T14:15:32.060Z,13.56
2019-02-17T14:17:31.977Z,13.55
2019-02-17T14:19:31.715Z,13.69
2019-02-17T14:21:31.917Z,13.77
2019-02-17T14:23:31.708Z,13.96
2019-02-17T14:25:31.629Z,13.96
2019-02-17T14:27:31.748Z,14.02
2019-02-17T14:29:31.833Z,14.13
2019-02-17T14:31:31.651Z,14.00
2019-02-17T14:33:31.669Z,14.10
2019-02-17T14:35:31.883Z,14.09
2019-02-17T14:37:31.690Z,14.25
2019-02-17T14:39:31.879Z,14.32
2019-02-17T14:41:31.862Z,14.32
2019-02-17T14:43:31.848Z,14.43
2019-02-17T14:45:31.940Z,14.56
2019-02-17T14:47:31.959Z,14.65
2019-02-17T14:49:31.874Z,14.68
2019-02-17T14:51:31.993Z,14.62
2019-02-17T14:53:31.940Z,14.49
2019-02-17T14:55:31.923Z,14.39
2019-02-17T14:57:31.800Z,14.09
2019-02-17T14:59:31.800Z,14.06
2019-02-17T15:01:31.792Z,13.92
2019-02-17T15:03:31.798Z,13.89
2019-02-17T15:05:31.773Z,14.01
2019-02-17T15:07:31.762Z,14.03
2019-02-17T15:09:31.667Z,14.02
2019-02-17T15:11:31.638Z,13.92
2019-02-17T15:13:31.902Z,13.81
2019-02-17T15:15:31.885Z,13.89
2019-02-17T15:17:32.131Z,13.70
2019-02-17T15:19:31.614Z,13.71
2019-02-17T15:21:31.950Z,13.71
2019-02-17T15:23:32.159Z,13.65
2019-02-17T15:25:31.971Z,13.67
2019-02-17T15:27:31.984Z,13.59
2019-02-17T15:29:31.932Z,13.56
2019-02-17T15:31:31.800Z,13.62
2019-02-17T15:33:32.216Z,13.73
2019-02-17T15:35:32.024Z,13.61
2019-02-17T15:37:31.987Z,13.44
2019-02-17T15:39:31.964Z,13.42
2019-02-17T15:41:32.057Z,13.17
2019-02-17T15:43:32.083Z,13.20
2019-02-17T15:45:32.196Z,13.17
2019-02-17T15:47:31.897Z,12.93
2019-02-17T15:49:31.908Z,12.69
2019-02-17T15:51:31.919Z,12.39
2019-02-17T15:53:31.937Z,12.31
2019-02-17T15:55:31.852Z,12.19
2019-02-17T15:57:31.671Z,11.98
2019-02-17T15:59:31.927Z,11.92
2019-02-17T16:01:32.186Z,11.83
2019-02-17T16:03:31.989Z,11.74
2019-02-17T16:05:31.916Z,11.67
2019-02-17T16:07:32.930Z,11.59
2019-02-17T16:09:31.821Z,11.52
2019-02-17T16:11:32.648Z,11.42
2019-02-17T16:13:32.251Z,11.42
2019-02-17T16:15:32.471Z,11.34
2019-02-17T16:17:32.277Z,11.27
2019-02-17T16:19:31.842Z,11.19
2019-02-17T16:21:34.657Z,11.21
2019-02-17T16:23:32.107Z,11.20
2019-02-17T16:25:31.885Z,11.07
2019-02-17T16:27:32.127Z,10.97
2019-02-17T16:29:31.936Z,10.87
2019-02-17T16:31:32.257Z,10.68
2019-02-17T16:33:32.168Z,10.54
2019-02-17T16:35:31.948Z,10.33
2019-02-17T16:37:32.151Z,10.17
2019-02-17T16:39:31.972Z,9.81
2019-02-17T16:41:32.006Z,9.63
2019-02-17T16:43:32.131Z,9.37
2019-02-17T16:45:31.995Z,9.24
2019-02-17T16:47:32.151Z,9.08
2019-02-17T16:49:35.056Z,8.90
2019-02-17T16:51:32.060Z,8.72
2019-02-17T16:53:32.034Z,8.60
2019-02-17T16:55:32.208Z,8.35
2019-02-17T16:57:32.307Z,8.25
2019-02-17T16:59:32.326Z,8.11
2019-02-17T17:01:32.824Z,7.90
2019-02-17T17:03:32.336Z,7.74
2019-02-17T17:05:32.142Z,7.55
2019-02-17T17:07:33.752Z,7.39
2019-02-17T17:09:35.040Z,7.41
2019-02-17T17:11:32.384Z,7.24
2019-02-17T17:13:34.790Z,7.17
2019-02-17T17:15:31.997Z,7.01
2019-02-17T17:17:32.145Z,6.97
2019-02-17T17:19:32.009Z,6.78
2019-02-17T17:21:32.234Z,6.69
2019-02-17T17:23:32.159Z,6.72
2019-02-17T17:25:32.063Z,6.69
2019-02-17T17:27:32.170Z,6.60
2019-02-17T17:29:32.201Z,6.40
2019-02-17T17:31:32.295Z,6.34
2019-02-17T17:33:32.103Z,6.04
2019-02-17T17:35:32.316Z,5.99
2019-02-17T17:37:32.330Z,5.94
2019-02-17T17:39:32.249Z,5.68
2019-02-17T17:41:32.770Z,5.59
2019-02-17T17:43:32.267Z,5.41
2019-02-17T17:45:32.179Z,5.33
2019-02-17T17:47:32.188Z,5.20
2019-02-17T17:49:32.195Z,5.10
2019-02-17T17:51:31.959Z,5.00
2019-02-17T17:53:32.156Z,4.82
2019-02-17T17:55:31.965Z,4.84
2019-02-17T17:57:32.187Z,4.83
2019-02-17T17:59:32.048Z,4.73
2019-02-17T18:01:32.060Z,4.56
2019-02-17T18:03:32.073Z,4.46
2019-02-17T18:05:32.297Z,4.30
2019-02-17T18:07:32.063Z,4.26
2019-02-17T18:09:32.321Z,4.23
2019-02-17T18:11:32.874Z,4.17
2019-02-17T18:13:32.115Z,3.96
2019-02-17T18:15:32.142Z,4.03
2019-02-17T18:17:32.360Z,3.86
2019-02-17T18:19:32.374Z,3.80
2019-02-17T18:21:32.154Z,3.90
2019-02-17T18:23:32.395Z,3.86
2019-02-17T18:25:32.198Z,3.89
2019-02-17T18:27:32.414Z,3.90
2019-02-17T18:29:32.436Z,4.03
2019-02-17T18:31:32.643Z,4.04
2019-02-17T18:33:32.188Z,3.96
2019-02-17T18:35:32.197Z,3.85
2019-02-17T18:37:32.268Z,3.78
2019-02-17T18:39:33.402Z,3.65
2019-02-17T18:41:32.289Z,3.62
2019-02-17T18:43:32.313Z,3.68
2019-02-17T18:45:32.317Z,3.63
2019-02-17T18:47:32.283Z,3.37
2019-02-17T18:49:32.084Z,3.39
2019-02-17T18:51:32.152Z,3.30
2019-02-17T18:53:32.457Z,3.31
2019-02-17T18:55:32.250Z,3.30
2019-02-17T18:57:32.391Z,3.32
2019-02-17T18:59:32.401Z,3.32
2019-02-17T19:01:32.303Z,3.31
2019-02-17T19:03:32.327Z,3.38
2019-02-17T19:05:32.560Z,3.35
2019-02-17T19:07:32.376Z,3.25
2019-02-17T19:09:32.227Z,3.12
2019-02-17T19:11:32.369Z,3.03
2019-02-17T19:13:32.247Z,3.03
2019-02-17T19:15:32.288Z,2.85
2019-02-17T19:17:32.502Z,2.81
2019-02-17T19:19:32.516Z,2.79
2019-02-17T19:21:32.327Z,2.78
2019-02-17T19:23:32.277Z,2.73
2019-02-17T19:25:32.348Z,2.77
2019-02-17T19:27:32.355Z,2.78
2019-02-17T19:29:32.577Z,2.83
2019-02-17T19:31:32.377Z,2.85
2019-02-17T19:33:32.195Z,2.80
2019-02-17T19:35:40.999Z,2.68
2019-02-17T19:37:32.363Z,2.68
2019-02-17T19:39:32.432Z,2.51
2019-02-17T19:41:32.441Z,2.44
2019-02-17T19:43:32.459Z,2.42
2019-02-17T19:45:32.192Z,2.17
2019-02-17T19:47:32.885Z,2.12
2019-02-17T19:49:33.742Z,2.19
2019-02-17T19:51:32.293Z,2.09
2019-02-17T19:53:32.520Z,1.94
2019-02-17T19:55:32.288Z,1.99
2019-02-17T19:57:32.441Z,1.97
2019-02-17T19:59:32.341Z,1.84
2019-02-17T20:01:34.226Z,1.99
2019-02-17T20:03:32.379Z,2.06
2019-02-17T20:05:32.369Z,2.09
2019-02-17T20:07:32.389Z,2.06
2019-02-17T20:09:32.164Z,2.09
2019-02-17T20:11:31.785Z,2.06
2019-02-17T20:13:32.234Z,1.89
2019-02-17T20:15:31.821Z,1.92
2019-02-17T20:17:32.253Z,1.71
2019-02-17T20:19:32.050Z,1.74
2019-02-17T20:21:31.810Z,1.69
2019-02-17T20:23:32.118Z,1.65
2019-02-17T20:25:32.045Z,1.49
2019-02-17T20:27:32.091Z,1.49
2019-02-17T20:29:32.104Z,1.41
2019-02-17T20:31:32.116Z,1.37
2019-02-17T20:33:32.744Z,1.28
2019-02-17T20:35:31.919Z,1.26
2019-02-17T20:37:32.361Z,1.04
2019-02-17T20:39:32.577Z,0.97
2019-02-17T20:41:32.379Z,0.79
2019-02-17T20:43:32.344Z,0.85
2019-02-17T20:45:32.109Z,0.89
2019-02-17T20:47:32.203Z,0.93
2019-02-17T20:49:32.036Z,0.91
2019-02-17T20:51:31.972Z,0.84
2019-02-17T20:53:32.040Z,0.83
2019-02-17T20:55:32.050Z,0.97
2019-02-17T20:57:32.009Z,1.09
2019-02-17T20:59:32.074Z,1.00
2019-02-17T21:01:32.086Z,1.02
2019-02-17T21:03:32.116Z,0.98
2019-02-17T21:05:32.529Z,0.93
2019-02-17T21:07:32.066Z,1.08
2019-02-17T21:09:31.876Z,1.01
2019-02-17T21:11:31.939Z,0.96
2019-02-17T21:13:32.160Z,1.13
2019-02-17T21:15:32.785Z,1.06
2019-02-17T21:17:32.387Z,1.07
2019-02-17T21:19:31.982Z,1.25
2019-02-17T21:21:32.201Z,1.09
2019-02-17T21:23:32.172Z,1.23
2019-02-17T21:25:32.231Z,1.28
2019-02-17T21:27:31.985Z,1.20
2019-02-17T21:29:32.044Z,1.28
2019-02-17T21:31:32.057Z,1.22
2019-02-17T21:33:32.267Z,1.21
2019-02-17T21:35:32.085Z,1.13
2019-02-17T21:37:32.094Z,1.02
2019-02-17T21:39:32.030Z,0.99
2019-02-17T21:41:32.118Z,0.94
2019-02-17T21:43:31.922Z,1.00
2019-02-17T21:45:32.075Z,1.06
2019-02-17T21:47:32.137Z,0.87
2019-02-17T21:49:32.159Z,0.82
2019-02-17T21:51:31.910Z,0.92
2019-02-17T21:53:32.169Z,0.73
2019-02-17T21:55:32.194Z,0.76
2019-02-17T21:57:32.206Z,0.65
2019-02-17T21:59:32.425Z,0.70
2019-02-17T22:01:32.022Z,0.61
2019-02-17T22:03:32.213Z,0.62
2019-02-17T22:05:32.460Z,0.54
2019-02-17T22:07:31.805Z,0.45
2019-02-17T22:09:31.782Z,0.55
2019-02-17T22:11:31.878Z,0.48
2019-02-17T22:13:32.030Z,0.48
2019-02-17T22:15:31.907Z,0.33
2019-02-17T22:17:32.089Z,0.33
2019-02-17T22:19:32.139Z,0.21
2019-02-17T22:21:32.096Z,0.18
2019-02-17T22:23:32.127Z,0.18
2019-02-17T22:25:31.962Z,0.08
2019-02-17T22:27:31.969Z,0.09
2019-02-17T22:29:32.182Z,0.05
2019-02-17T22:31:32.135Z,0.10
2019-02-17T22:33:32.215Z,-0.01
2019-02-17T22:35:32.428Z,-0.01
2019-02-17T22:37:32.174Z,-0.09
2019-02-17T22:39:32.058Z,0.08
2019-02-17T22:41:32.258Z,-0.14
2019-02-17T22:43:32.049Z,0.01
2019-02-17T22:45:32.078Z,0.01
2019-02-17T22:47:32.290Z,-0.05
2019-02-17T22:49:31.898Z,-0.17
2019-02-17T22:51:32.727Z,-0.17
2019-02-17T22:53:32.321Z,-0.18
2019-02-17T22:55:32.340Z,-0.21
2019-02-17T22:57:32.081Z,-0.19
2019-02-17T22:59:31.940Z,-0.30
2019-02-17T23:01:32.135Z,-0.30
2019-02-17T23:03:32.551Z,-0.38
2019-02-17T23:05:32.398Z,-0.38
2019-02-17T23:07:32.203Z,-0.28
2019-02-17T23:09:32.208Z,-0.36
2019-02-17T23:11:32.222Z,-0.37
2019-02-17T23:13:32.239Z,-0.27
2019-02-17T23:15:32.203Z,-0.41
2019-02-17T23:17:32.264Z,-0.47
2019-02-17T23:19:32.207Z,-0.53
2019-02-17T23:21:32.491Z,-0.56
2019-02-17T23:23:32.500Z,-0.57
2019-02-17T23:25:32.712Z,-0.52
2019-02-17T23:27:32.323Z,-0.65
2019-02-17T23:29:32.088Z,-0.71
2019-02-17T23:31:32.140Z,-0.74
2019-02-17T23:33:32.153Z,-0.71
2019-02-17T23:35:32.570Z,-0.68
2019-02-17T23:37:31.968Z,-0.44
2019-02-17T23:39:32.443Z,-0.52
2019-02-17T23:41:32.396Z,-0.44
2019-02-17T23:43:32.006Z,-0.56
2019-02-17T23:45:32.221Z,-0.39
2019-02-17T23:47:32.023Z,-0.45
2019-02-17T23:49:32.443Z,-0.44
2019-02-17T23:51:32.459Z,-0.38
2019-02-17T23:53:32.223Z,-0.51
2019-02-17T23:55:32.230Z,-0.45
2019-02-17T23:57:32.270Z,-0.56
2019-02-17T23:59:32.370Z,-0.68
